sensor_id;sensor_type;location;lat;lon;timestamp;temperature;humidity
46085;DHT22;31823;47.032;8.310;2023-09-12T00:02:05;19.10;99.90
46085;DHT22;31823;47.032;8.310;2023-09-12T00:04:31;19.00;99.90
46085;DHT22;31823;47.032;8.310;2023-09-12T00:06:56;19.00;99.90
46085;DHT22;31823;47.032;8.310;2023-09-12T00:09:22;19.00;99.90
46085;DHT22;31823;47.032;8.310;2023-09-12T00:11:48;18.90;99.90
46085;DHT22;31823;47.032;8.310;2023-09-12T00:14:17;18.90;99.90
46085;DHT22;31823;47.032;8.310;2023-09-12T00:16:42;19.00;99.90
46085;DHT22;31823;47.032;8.310;2023-09-12T00:19:08;19.00;99.90
46085;DHT22;31823;47.032;8.310;2023-09-12T00:21:34;18.90;99.90
46085;DHT22;31823;47.032;8.310;2023-09-12T00:23:59;18.90;99.90
46085;DHT22;31823;47.032;8.310;2023-09-12T00:26:25;18.90;99.90
46085;DHT22;31823;47.032;8.310;2023-09-12T00:28:50;18.80;99.90
46085;DHT22;31823;47.032;8.310;2023-09-12T00:31:16;18.90;99.90
46085;DHT22;31823;47.032;8.310;2023-09-12T00:33:42;18.90;99.90
46085;DHT22;31823;47.032;8.310;2023-09-12T00:36:07;18.80;99.90
46085;DHT22;31823;47.032;8.310;2023-09-12T00:38:33;18.80;99.90
46085;DHT22;31823;47.032;8.310;2023-09-12T00:40:58;18.80;99.90
46085;DHT22;31823;47.032;8.310;2023-09-12T00:43:24;18.80;99.90
46085;DHT22;31823;47.032;8.310;2023-09-12T00:45:49;18.90;99.90
46085;DHT22;31823;47.032;8.310;2023-09-12T00:48:16;18.80;99.90
46085;DHT22;31823;47.032;8.310;2023-09-12T00:50:44;18.80;99.90
46085;DHT22;31823;47.032;8.310;2023-09-12T00:53:10;18.80;99.90
46085;DHT22;31823;47.032;8.310;2023-09-12T00:55:37;18.80;99.90
46085;DHT22;31823;47.032;8.310;2023-09-12T00:58:04;18.70;99.90
46085;DHT22;31823;47.032;8.310;2023-09-12T01:00:30;18.70;99.90
46085;DHT22;31823;47.032;8.310;2023-09-12T01:02:56;18.80;99.90
46085;DHT22;31823;47.032;8.310;2023-09-12T01:05:22;18.80;99.90
46085;DHT22;31823;47.032;8.310;2023-09-12T01:07:48;18.80;99.90
46085;DHT22;31823;47.032;8.310;2023-09-12T01:10:14;18.80;99.90
46085;DHT22;31823;47.032;8.310;2023-09-12T01:12:39;18.80;99.90
46085;DHT22;31823;47.032;8.310;2023-09-12T01:15:05;18.70;99.90
46085;DHT22;31823;47.032;8.310;2023-09-12T01:17:36;18.80;99.90
46085;DHT22;31823;47.032;8.310;2023-09-12T01:20:04;18.70;99.90
46085;DHT22;31823;47.032;8.310;2023-09-12T01:23:00;18.70;99.90
46085;DHT22;31823;47.032;8.310;2023-09-12T01:28:09;18.70;99.90
46085;DHT22;31823;47.032;8.310;2023-09-12T01:30:35;18.70;99.90
46085;DHT22;31823;47.032;8.310;2023-09-12T01:33:01;18.70;99.90
46085;DHT22;31823;47.032;8.310;2023-09-12T01:35:28;18.70;99.90
46085;DHT22;31823;47.032;8.310;2023-09-12T01:37:54;18.70;99.90
46085;DHT22;31823;47.032;8.310;2023-09-12T01:40:27;18.70;99.90
46085;DHT22;31823;47.032;8.310;2023-09-12T01:42:57;18.70;99.90
46085;DHT22;31823;47.032;8.310;2023-09-12T01:45:24;18.70;99.90
46085;DHT22;31823;47.032;8.310;2023-09-12T01:47:50;18.70;99.90
46085;DHT22;31823;47.032;8.310;2023-09-12T01:50:16;18.70;99.90
46085;DHT22;31823;47.032;8.310;2023-09-12T01:52:43;18.60;99.90
46085;DHT22;31823;47.032;8.310;2023-09-12T01:55:09;18.60;99.90
46085;DHT22;31823;47.032;8.310;2023-09-12T01:57:37;18.60;99.90
46085;DHT22;31823;47.032;8.310;2023-09-12T02:00:03;18.70;99.90
46085;DHT22;31823;47.032;8.310;2023-09-12T02:02:29;18.60;99.90
46085;DHT22;31823;47.032;8.310;2023-09-12T02:05:12;18.70;99.90
46085;DHT22;31823;47.032;8.310;2023-09-12T02:07:41;18.70;99.90
46085;DHT22;31823;47.032;8.310;2023-09-12T02:10:07;18.60;99.90
46085;DHT22;31823;47.032;8.310;2023-09-12T02:12:33;18.60;99.90
46085;DHT22;31823;47.032;8.310;2023-09-12T02:14:58;18.60;99.90
46085;DHT22;31823;47.032;8.310;2023-09-12T02:17:24;18.60;99.90
46085;DHT22;31823;47.032;8.310;2023-09-12T02:19:50;18.60;99.90
46085;DHT22;31823;47.032;8.310;2023-09-12T02:22:15;18.60;99.90
46085;DHT22;31823;47.032;8.310;2023-09-12T02:24:41;18.60;99.90
46085;DHT22;31823;47.032;8.310;2023-09-12T02:27:06;18.50;99.90
46085;DHT22;31823;47.032;8.310;2023-09-12T02:29:32;18.60;99.90
46085;DHT22;31823;47.032;8.310;2023-09-12T02:32:00;18.50;99.90
46085;DHT22;31823;47.032;8.310;2023-09-12T02:34:26;18.50;99.90
46085;DHT22;31823;47.032;8.310;2023-09-12T02:36:52;18.40;99.90
46085;DHT22;31823;47.032;8.310;2023-09-12T02:39:17;18.30;99.90
46085;DHT22;31823;47.032;8.310;2023-09-12T02:41:43;18.40;99.90
46085;DHT22;31823;47.032;8.310;2023-09-12T02:44:08;18.30;99.90
46085;DHT22;31823;47.032;8.310;2023-09-12T02:46:36;18.30;99.90
46085;DHT22;31823;47.032;8.310;2023-09-12T02:49:02;18.30;99.90
46085;DHT22;31823;47.032;8.310;2023-09-12T02:51:28;18.30;99.90
46085;DHT22;31823;47.032;8.310;2023-09-12T02:53:54;18.30;99.90
46085;DHT22;31823;47.032;8.310;2023-09-12T02:56:19;18.30;99.90
46085;DHT22;31823;47.032;8.310;2023-09-12T02:58:49;18.20;99.90
46085;DHT22;31823;47.032;8.310;2023-09-12T03:01:18;18.30;99.90
46085;DHT22;31823;47.032;8.310;2023-09-12T03:03:50;18.30;99.90
46085;DHT22;31823;47.032;8.310;2023-09-12T03:06:16;18.30;99.90
46085;DHT22;31823;47.032;8.310;2023-09-12T03:08:44;18.20;99.90
46085;DHT22;31823;47.032;8.310;2023-09-12T03:11:10;18.30;99.90
46085;DHT22;31823;47.032;8.310;2023-09-12T03:13:40;18.20;99.90
46085;DHT22;31823;47.032;8.310;2023-09-12T03:16:10;18.20;99.90
46085;DHT22;31823;47.032;8.310;2023-09-12T03:18:36;18.10;99.90
46085;DHT22;31823;47.032;8.310;2023-09-12T03:21:01;18.10;99.90
46085;DHT22;31823;47.032;8.310;2023-09-12T03:23:27;18.10;99.90
46085;DHT22;31823;47.032;8.310;2023-09-12T03:25:53;18.20;99.90
46085;DHT22;31823;47.032;8.310;2023-09-12T03:28:18;18.10;99.90
46085;DHT22;31823;47.032;8.310;2023-09-12T03:30:44;18.10;99.90
46085;DHT22;31823;47.032;8.310;2023-09-12T03:33:10;18.10;99.90
46085;DHT22;31823;47.032;8.310;2023-09-12T03:35:35;18.00;99.90
46085;DHT22;31823;47.032;8.310;2023-09-12T03:38:01;18.10;99.90
46085;DHT22;31823;47.032;8.310;2023-09-12T03:40:30;18.10;99.90
46085;DHT22;31823;47.032;8.310;2023-09-12T03:42:57;18.10;99.90
46085;DHT22;31823;47.032;8.310;2023-09-12T03:45:23;18.10;99.90
46085;DHT22;31823;47.032;8.310;2023-09-12T03:47:48;18.00;99.90
46085;DHT22;31823;47.032;8.310;2023-09-12T03:50:14;18.00;99.90
46085;DHT22;31823;47.032;8.310;2023-09-12T03:52:40;18.00;99.90
46085;DHT22;31823;47.032;8.310;2023-09-12T03:55:06;18.00;99.90
46085;DHT22;31823;47.032;8.310;2023-09-12T03:57:32;18.00;99.90
46085;DHT22;31823;47.032;8.310;2023-09-12T03:59:57;18.00;99.90
46085;DHT22;31823;47.032;8.310;2023-09-12T04:02:23;18.00;99.90
46085;DHT22;31823;47.032;8.310;2023-09-12T04:04:49;18.00;99.90
46085;DHT22;31823;47.032;8.310;2023-09-12T04:07:14;17.90;99.90
46085;DHT22;31823;47.032;8.310;2023-09-12T04:09:40;17.90;99.90
46085;DHT22;31823;47.032;8.310;2023-09-12T04:12:06;18.00;99.90
46085;DHT22;31823;47.032;8.310;2023-09-12T04:14:32;17.90;99.90
46085;DHT22;31823;47.032;8.310;2023-09-12T04:16:58;17.90;99.90
46085;DHT22;31823;47.032;8.310;2023-09-12T04:19:24;17.90;99.90
46085;DHT22;31823;47.032;8.310;2023-09-12T04:21:50;17.90;99.90
46085;DHT22;31823;47.032;8.310;2023-09-12T04:24:15;17.90;99.90
46085;DHT22;31823;47.032;8.310;2023-09-12T04:26:43;17.80;99.90
46085;DHT22;31823;47.032;8.310;2023-09-12T04:29:09;17.80;99.90
46085;DHT22;31823;47.032;8.310;2023-09-12T04:31:35;17.90;99.90
46085;DHT22;31823;47.032;8.310;2023-09-12T04:34:06;17.80;99.90
46085;DHT22;31823;47.032;8.310;2023-09-12T04:36:32;17.80;99.90
46085;DHT22;31823;47.032;8.310;2023-09-12T04:38:58;17.90;99.90
46085;DHT22;31823;47.032;8.310;2023-09-12T04:41:24;17.70;99.90
46085;DHT22;31823;47.032;8.310;2023-09-12T04:43:50;17.80;99.90
46085;DHT22;31823;47.032;8.310;2023-09-12T04:46:15;17.80;99.90
46085;DHT22;31823;47.032;8.310;2023-09-12T04:48:41;17.60;99.90
46085;DHT22;31823;47.032;8.310;2023-09-12T04:51:06;17.70;99.90
46085;DHT22;31823;47.032;8.310;2023-09-12T04:53:32;17.70;99.90
46085;DHT22;31823;47.032;8.310;2023-09-12T04:56:01;17.80;99.90
46085;DHT22;31823;47.032;8.310;2023-09-12T04:58:27;17.70;99.90
46085;DHT22;31823;47.032;8.310;2023-09-12T05:00:54;17.70;99.90
46085;DHT22;31823;47.032;8.310;2023-09-12T05:03:19;17.70;99.90
46085;DHT22;31823;47.032;8.310;2023-09-12T05:05:46;17.70;99.90
46085;DHT22;31823;47.032;8.310;2023-09-12T05:08:12;17.70;99.90
46085;DHT22;31823;47.032;8.310;2023-09-12T05:10:38;17.70;99.90
46085;DHT22;31823;47.032;8.310;2023-09-12T05:13:05;17.70;99.90
46085;DHT22;31823;47.032;8.310;2023-09-12T05:15:30;17.80;99.90
46085;DHT22;31823;47.032;8.310;2023-09-12T05:17:56;17.80;99.90
46085;DHT22;31823;47.032;8.310;2023-09-12T05:20:22;17.80;99.90
46085;DHT22;31823;47.032;8.310;2023-09-12T05:22:47;17.90;99.90
46085;DHT22;31823;47.032;8.310;2023-09-12T05:25:13;17.80;99.90
46085;DHT22;31823;47.032;8.310;2023-09-12T05:27:38;17.90;99.90
46085;DHT22;31823;47.032;8.310;2023-09-12T05:30:04;17.90;99.90
46085;DHT22;31823;47.032;8.310;2023-09-12T05:32:30;17.90;99.90
46085;DHT22;31823;47.032;8.310;2023-09-12T05:34:56;17.80;99.90
46085;DHT22;31823;47.032;8.310;2023-09-12T05:37:22;17.90;99.90
46085;DHT22;31823;47.032;8.310;2023-09-12T05:39:47;17.80;99.90
46085;DHT22;31823;47.032;8.310;2023-09-12T05:42:13;17.80;99.90
46085;DHT22;31823;47.032;8.310;2023-09-12T05:44:40;17.90;99.90
46085;DHT22;31823;47.032;8.310;2023-09-12T05:47:07;17.90;99.90
46085;DHT22;31823;47.032;8.310;2023-09-12T05:49:33;17.90;99.90
46085;DHT22;31823;47.032;8.310;2023-09-12T05:51:59;17.90;99.90
46085;DHT22;31823;47.032;8.310;2023-09-12T05:54:25;18.00;99.90
46085;DHT22;31823;47.032;8.310;2023-09-12T05:56:51;18.10;99.90
46085;DHT22;31823;47.032;8.310;2023-09-12T05:59:18;18.20;99.90
46085;DHT22;31823;47.032;8.310;2023-09-12T06:01:43;18.20;99.90
46085;DHT22;31823;47.032;8.310;2023-09-12T06:04:09;18.20;99.90
46085;DHT22;31823;47.032;8.310;2023-09-12T06:06:35;18.30;99.90
46085;DHT22;31823;47.032;8.310;2023-09-12T06:09:00;18.40;99.90
46085;DHT22;31823;47.032;8.310;2023-09-12T06:11:26;18.40;99.90
46085;DHT22;31823;47.032;8.310;2023-09-12T06:13:51;18.50;99.90
46085;DHT22;31823;47.032;8.310;2023-09-12T06:16:17;18.50;99.90
46085;DHT22;31823;47.032;8.310;2023-09-12T06:18:43;18.60;99.90
46085;DHT22;31823;47.032;8.310;2023-09-12T06:21:08;18.50;99.90
46085;DHT22;31823;47.032;8.310;2023-09-12T06:23:34;18.60;99.90
46085;DHT22;31823;47.032;8.310;2023-09-12T06:26:00;18.60;99.90
46085;DHT22;31823;47.032;8.310;2023-09-12T06:28:30;18.70;99.90
46085;DHT22;31823;47.032;8.310;2023-09-12T06:30:56;18.60;99.90
46085;DHT22;31823;47.032;8.310;2023-09-12T06:33:25;18.50;99.90
46085;DHT22;31823;47.032;8.310;2023-09-12T06:35:51;18.70;99.90
46085;DHT22;31823;47.032;8.310;2023-09-12T06:38:18;18.70;99.90
46085;DHT22;31823;47.032;8.310;2023-09-12T06:40:44;18.80;99.90
46085;DHT22;31823;47.032;8.310;2023-09-12T06:43:10;18.90;99.90
46085;DHT22;31823;47.032;8.310;2023-09-12T06:45:35;18.90;99.90
46085;DHT22;31823;47.032;8.310;2023-09-12T06:48:03;19.00;99.90
46085;DHT22;31823;47.032;8.310;2023-09-12T06:50:29;19.10;99.90
46085;DHT22;31823;47.032;8.310;2023-09-12T06:52:54;19.20;99.90
46085;DHT22;31823;47.032;8.310;2023-09-12T06:55:20;19.30;99.90
46085;DHT22;31823;47.032;8.310;2023-09-12T06:57:46;19.50;99.90
46085;DHT22;31823;47.032;8.310;2023-09-12T07:00:12;19.60;99.90
46085;DHT22;31823;47.032;8.310;2023-09-12T07:02:38;19.80;99.90
46085;DHT22;31823;47.032;8.310;2023-09-12T07:05:04;19.90;99.90
46085;DHT22;31823;47.032;8.310;2023-09-12T07:07:30;20.10;99.90
46085;DHT22;31823;47.032;8.310;2023-09-12T07:09:56;20.20;99.90
46085;DHT22;31823;47.032;8.310;2023-09-12T07:12:22;20.40;99.90
46085;DHT22;31823;47.032;8.310;2023-09-12T07:14:47;20.70;99.90
46085;DHT22;31823;47.032;8.310;2023-09-12T07:17:14;20.80;99.90
46085;DHT22;31823;47.032;8.310;2023-09-12T07:19:39;20.90;99.90
46085;DHT22;31823;47.032;8.310;2023-09-12T07:22:05;20.90;99.90
46085;DHT22;31823;47.032;8.310;2023-09-12T07:24:30;21.30;99.90
46085;DHT22;31823;47.032;8.310;2023-09-12T07:26:56;21.50;99.90
46085;DHT22;31823;47.032;8.310;2023-09-12T07:29:23;21.40;99.90
46085;DHT22;31823;47.032;8.310;2023-09-12T07:31:52;21.20;99.90
46085;DHT22;31823;47.032;8.310;2023-09-12T07:34:19;21.10;99.90
46085;DHT22;31823;47.032;8.310;2023-09-12T07:36:44;21.10;99.90
46085;DHT22;31823;47.032;8.310;2023-09-12T07:39:10;21.30;99.90
46085;DHT22;31823;47.032;8.310;2023-09-12T07:41:36;21.50;99.90
46085;DHT22;31823;47.032;8.310;2023-09-12T07:44:02;22.00;99.90
46085;DHT22;31823;47.032;8.310;2023-09-12T07:46:30;22.20;99.90
46085;DHT22;31823;47.032;8.310;2023-09-12T07:48:55;22.00;99.90
46085;DHT22;31823;47.032;8.310;2023-09-12T07:51:22;22.10;99.90
46085;DHT22;31823;47.032;8.310;2023-09-12T07:53:48;22.20;99.90
46085;DHT22;31823;47.032;8.310;2023-09-12T07:56:14;22.30;99.90
46085;DHT22;31823;47.032;8.310;2023-09-12T07:58:39;22.30;99.90
46085;DHT22;31823;47.032;8.310;2023-09-12T08:01:09;22.30;99.90
46085;DHT22;31823;47.032;8.310;2023-09-12T08:03:36;22.30;99.90
46085;DHT22;31823;47.032;8.310;2023-09-12T08:06:03;22.20;99.90
46085;DHT22;31823;47.032;8.310;2023-09-12T08:08:29;22.30;99.90
46085;DHT22;31823;47.032;8.310;2023-09-12T08:10:55;22.40;99.90
46085;DHT22;31823;47.032;8.310;2023-09-12T08:13:21;22.40;99.90
46085;DHT22;31823;47.032;8.310;2023-09-12T08:15:46;23.10;99.90
46085;DHT22;31823;47.032;8.310;2023-09-12T08:18:12;23.10;99.90
46085;DHT22;31823;47.032;8.310;2023-09-12T08:20:38;23.30;99.90
46085;DHT22;31823;47.032;8.310;2023-09-12T08:23:03;23.10;99.90
46085;DHT22;31823;47.032;8.310;2023-09-12T08:25:29;23.00;99.90
46085;DHT22;31823;47.032;8.310;2023-09-12T08:27:55;23.30;99.90
46085;DHT22;31823;47.032;8.310;2023-09-12T08:30:20;23.70;99.90
46085;DHT22;31823;47.032;8.310;2023-09-12T08:32:47;23.30;99.90
46085;DHT22;31823;47.032;8.310;2023-09-12T08:35:13;23.20;99.90
46085;DHT22;31823;47.032;8.310;2023-09-12T08:37:40;22.90;99.90
46085;DHT22;31823;47.032;8.310;2023-09-12T08:40:10;23.00;99.90
46085;DHT22;31823;47.032;8.310;2023-09-12T08:42:40;23.00;99.90
46085;DHT22;31823;47.032;8.310;2023-09-12T08:45:11;23.30;99.90
46085;DHT22;31823;47.032;8.310;2023-09-12T08:47:40;23.60;99.90
46085;DHT22;31823;47.032;8.310;2023-09-12T08:50:10;23.60;99.90
46085;DHT22;31823;47.032;8.310;2023-09-12T08:52:37;23.30;99.90
46085;DHT22;31823;47.032;8.310;2023-09-12T08:55:03;23.20;99.90
46085;DHT22;31823;47.032;8.310;2023-09-12T08:57:31;23.60;99.90
46085;DHT22;31823;47.032;8.310;2023-09-12T08:59:58;23.70;99.90
46085;DHT22;31823;47.032;8.310;2023-09-12T09:02:26;23.60;99.90
46085;DHT22;31823;47.032;8.310;2023-09-12T09:04:51;23.20;99.90
46085;DHT22;31823;47.032;8.310;2023-09-12T09:07:18;23.20;99.90
46085;DHT22;31823;47.032;8.310;2023-09-12T09:09:46;23.00;99.90
46085;DHT22;31823;47.032;8.310;2023-09-12T09:12:11;22.80;99.90
46085;DHT22;31823;47.032;8.310;2023-09-12T09:14:37;22.80;99.90
46085;DHT22;31823;47.032;8.310;2023-09-12T09:17:03;23.10;99.90
46085;DHT22;31823;47.032;8.310;2023-09-12T09:19:42;23.30;99.90
46085;DHT22;31823;47.032;8.310;2023-09-12T09:22:07;23.60;99.90
46085;DHT22;31823;47.032;8.310;2023-09-12T09:24:33;24.00;99.90
46085;DHT22;31823;47.032;8.310;2023-09-12T09:26:58;24.20;99.90
46085;DHT22;31823;47.032;8.310;2023-09-12T09:29:26;24.60;99.90
46085;DHT22;31823;47.032;8.310;2023-09-12T09:31:58;24.80;99.90
46085;DHT22;31823;47.032;8.310;2023-09-12T09:34:24;24.70;99.90
46085;DHT22;31823;47.032;8.310;2023-09-12T09:36:51;24.60;99.90
46085;DHT22;31823;47.032;8.310;2023-09-12T09:39:27;24.60;99.90
46085;DHT22;31823;47.032;8.310;2023-09-12T09:41:57;24.80;99.90
46085;DHT22;31823;47.032;8.310;2023-09-12T09:44:25;24.80;99.90
46085;DHT22;31823;47.032;8.310;2023-09-12T09:46:58;24.50;99.90
46085;DHT22;31823;47.032;8.310;2023-09-12T09:49:25;24.70;99.90
46085;DHT22;31823;47.032;8.310;2023-09-12T09:51:54;24.50;99.90
46085;DHT22;31823;47.032;8.310;2023-09-12T09:54:24;24.30;99.90
46085;DHT22;31823;47.032;8.310;2023-09-12T09:56:54;24.20;99.90
46085;DHT22;31823;47.032;8.310;2023-09-12T09:59:25;24.20;99.90
46085;DHT22;31823;47.032;8.310;2023-09-12T10:01:58;24.50;99.90
46085;DHT22;31823;47.032;8.310;2023-09-12T10:04:27;24.80;99.90
46085;DHT22;31823;47.032;8.310;2023-09-12T10:06:56;25.00;99.90
46085;DHT22;31823;47.032;8.310;2023-09-12T10:09:23;25.10;99.90
46085;DHT22;31823;47.032;8.310;2023-09-12T10:11:51;24.60;99.90
46085;DHT22;31823;47.032;8.310;2023-09-12T10:14:20;24.60;99.90
46085;DHT22;31823;47.032;8.310;2023-09-12T10:16:47;24.60;99.90
46085;DHT22;31823;47.032;8.310;2023-09-12T10:19:26;24.50;99.90
46085;DHT22;31823;47.032;8.310;2023-09-12T10:22:10;24.10;99.90
46085;DHT22;31823;47.032;8.310;2023-09-12T10:24:39;24.10;99.90
46085;DHT22;31823;47.032;8.310;2023-09-12T10:27:06;24.80;99.90
46085;DHT22;31823;47.032;8.310;2023-09-12T10:29:32;25.80;99.90
46085;DHT22;31823;47.032;8.310;2023-09-12T10:31:58;26.20;99.90
46085;DHT22;31823;47.032;8.310;2023-09-12T10:34:25;26.50;99.90
46085;DHT22;31823;47.032;8.310;2023-09-12T10:36:51;26.60;99.90
46085;DHT22;31823;47.032;8.310;2023-09-12T10:39:19;27.10;99.90
46085;DHT22;31823;47.032;8.310;2023-09-12T10:41:46;27.20;99.90
46085;DHT22;31823;47.032;8.310;2023-09-12T10:44:16;26.90;99.90
46085;DHT22;31823;47.032;8.310;2023-09-12T10:46:46;26.80;99.90
46085;DHT22;31823;47.032;8.310;2023-09-12T10:49:13;26.40;99.90
46085;DHT22;31823;47.032;8.310;2023-09-12T10:51:43;26.80;99.90
46085;DHT22;31823;47.032;8.310;2023-09-12T10:54:14;27.10;99.90
46085;DHT22;31823;47.032;8.310;2023-09-12T10:56:40;27.10;99.90
46085;DHT22;31823;47.032;8.310;2023-09-12T11:01:42;26.10;99.90
46085;DHT22;31823;47.032;8.310;2023-09-12T11:06:48;26.60;99.90
46085;DHT22;31823;47.032;8.310;2023-09-12T11:12:02;26.50;99.90
46085;DHT22;31823;47.032;8.310;2023-09-12T11:14:28;27.00;97.40
46085;DHT22;31823;47.032;8.310;2023-09-12T11:19:44;27.00;97.40
46085;DHT22;31823;47.032;8.310;2023-09-12T11:22:37;27.10;96.60
46085;DHT22;31823;47.032;8.310;2023-09-12T11:25:15;27.10;96.70
46085;DHT22;31823;47.032;8.310;2023-09-12T11:27:45;27.30;99.90
46085;DHT22;31823;47.032;8.310;2023-09-12T11:30:12;27.30;99.90
46085;DHT22;31823;47.032;8.310;2023-09-12T11:32:37;27.50;97.20
46085;DHT22;31823;47.032;8.310;2023-09-12T11:35:07;27.70;98.00
46085;DHT22;31823;47.032;8.310;2023-09-12T11:37:34;27.80;97.00
46085;DHT22;31823;47.032;8.310;2023-09-12T11:40:15;27.70;96.10
46085;DHT22;31823;47.032;8.310;2023-09-12T11:42:42;27.90;95.10
46085;DHT22;31823;47.032;8.310;2023-09-12T11:45:09;27.80;93.50
46085;DHT22;31823;47.032;8.310;2023-09-12T11:47:40;27.70;93.70
46085;DHT22;31823;47.032;8.310;2023-09-12T11:50:06;27.50;93.80
46085;DHT22;31823;47.032;8.310;2023-09-12T11:52:36;27.70;94.70
46085;DHT22;31823;47.032;8.310;2023-09-12T11:55:03;27.90;94.10
46085;DHT22;31823;47.032;8.310;2023-09-12T11:57:29;28.00;94.90
46085;DHT22;31823;47.032;8.310;2023-09-12T11:59:55;28.10;96.90
46085;DHT22;31823;47.032;8.310;2023-09-12T12:02:22;28.00;94.90
46085;DHT22;31823;47.032;8.310;2023-09-12T12:04:49;27.80;96.20
46085;DHT22;31823;47.032;8.310;2023-09-12T12:07:15;27.50;95.60
46085;DHT22;31823;47.032;8.310;2023-09-12T12:09:41;27.60;95.50
46085;DHT22;31823;47.032;8.310;2023-09-12T12:12:12;27.80;95.30
46085;DHT22;31823;47.032;8.310;2023-09-12T12:14:39;27.60;94.80
46085;DHT22;31823;47.032;8.310;2023-09-12T12:17:09;27.50;94.80
46085;DHT22;31823;47.032;8.310;2023-09-12T12:19:35;27.50;95.30
46085;DHT22;31823;47.032;8.310;2023-09-12T12:22:03;27.20;97.10
46085;DHT22;31823;47.032;8.310;2023-09-12T12:24:37;27.00;99.90
46085;DHT22;31823;47.032;8.310;2023-09-12T12:27:04;26.60;99.90
46085;DHT22;31823;47.032;8.310;2023-09-12T12:29:30;26.40;97.90
46085;DHT22;31823;47.032;8.310;2023-09-12T12:32:02;26.70;99.70
46085;DHT22;31823;47.032;8.310;2023-09-12T12:34:30;26.00;99.90
46085;DHT22;31823;47.032;8.310;2023-09-12T12:36:56;25.40;99.90
46085;DHT22;31823;47.032;8.310;2023-09-12T12:39:22;25.20;99.90
46085;DHT22;31823;47.032;8.310;2023-09-12T12:41:48;25.10;99.90
46085;DHT22;31823;47.032;8.310;2023-09-12T12:44:14;25.00;99.90
46085;DHT22;31823;47.032;8.310;2023-09-12T12:46:51;25.00;99.90
46085;DHT22;31823;47.032;8.310;2023-09-12T12:49:18;25.10;99.90
46085;DHT22;31823;47.032;8.310;2023-09-12T12:51:44;25.10;99.90
46085;DHT22;31823;47.032;8.310;2023-09-12T12:54:11;24.90;99.90
46085;DHT22;31823;47.032;8.310;2023-09-12T12:56:37;24.90;99.90
46085;DHT22;31823;47.032;8.310;2023-09-12T12:59:05;24.70;99.90
46085;DHT22;31823;47.032;8.310;2023-09-12T13:01:38;24.50;99.90
46085;DHT22;31823;47.032;8.310;2023-09-12T13:04:07;24.50;99.90
46085;DHT22;31823;47.032;8.310;2023-09-12T13:06:34;24.20;99.90
46085;DHT22;31823;47.032;8.310;2023-09-12T13:09:04;24.20;99.90
46085;DHT22;31823;47.032;8.310;2023-09-12T13:11:32;24.30;99.90
46085;DHT22;31823;47.032;8.310;2023-09-12T13:14:01;24.20;99.90
46085;DHT22;31823;47.032;8.310;2023-09-12T13:16:27;24.30;99.90
46085;DHT22;31823;47.032;8.310;2023-09-12T13:18:53;24.20;99.90
46085;DHT22;31823;47.032;8.310;2023-09-12T13:21:19;24.50;99.90
46085;DHT22;31823;47.032;8.310;2023-09-12T13:23:44;24.70;99.90
46085;DHT22;31823;47.032;8.310;2023-09-12T13:26:10;24.70;99.90
46085;DHT22;31823;47.032;8.310;2023-09-12T13:28:36;24.80;99.90
46085;DHT22;31823;47.032;8.310;2023-09-12T13:31:02;24.70;99.90
46085;DHT22;31823;47.032;8.310;2023-09-12T13:33:28;25.60;99.90
46085;DHT22;31823;47.032;8.310;2023-09-12T13:35:54;26.80;99.90
46085;DHT22;31823;47.032;8.310;2023-09-12T13:38:20;26.90;99.90
46085;DHT22;31823;47.032;8.310;2023-09-12T13:40:48;26.90;99.60
46085;DHT22;31823;47.032;8.310;2023-09-12T13:43:14;27.00;98.60
46085;DHT22;31823;47.032;8.310;2023-09-12T13:45:40;27.40;99.70
46085;DHT22;31823;47.032;8.310;2023-09-12T13:48:06;27.70;99.00
46085;DHT22;31823;47.032;8.310;2023-09-12T13:50:33;27.70;96.60
46085;DHT22;31823;47.032;8.310;2023-09-12T13:53:00;27.30;97.30
46085;DHT22;31823;47.032;8.310;2023-09-12T13:55:29;26.50;97.40
46085;DHT22;31823;47.032;8.310;2023-09-12T13:57:55;26.00;98.80
46085;DHT22;31823;47.032;8.310;2023-09-12T14:00:20;25.40;98.50
46085;DHT22;31823;47.032;8.310;2023-09-12T14:02:46;24.80;98.30
46085;DHT22;31823;47.032;8.310;2023-09-12T14:05:12;24.40;99.60
46085;DHT22;31823;47.032;8.310;2023-09-12T14:07:38;24.20;99.50
46085;DHT22;31823;47.032;8.310;2023-09-12T14:10:08;24.00;99.90
46085;DHT22;31823;47.032;8.310;2023-09-12T14:12:34;24.00;99.90
46085;DHT22;31823;47.032;8.310;2023-09-12T14:15:00;24.10;99.90
46085;DHT22;31823;47.032;8.310;2023-09-12T14:17:25;23.90;99.90
46085;DHT22;31823;47.032;8.310;2023-09-12T14:19:52;23.90;99.90
46085;DHT22;31823;47.032;8.310;2023-09-12T14:22:18;24.20;99.90
46085;DHT22;31823;47.032;8.310;2023-09-12T14:24:43;23.50;99.90
46085;DHT22;31823;47.032;8.310;2023-09-12T14:27:09;23.20;99.90
46085;DHT22;31823;47.032;8.310;2023-09-12T14:29:35;23.00;99.90
46085;DHT22;31823;47.032;8.310;2023-09-12T14:32:00;23.30;99.90
46085;DHT22;31823;47.032;8.310;2023-09-12T14:34:29;24.40;99.90
46085;DHT22;31823;47.032;8.310;2023-09-12T14:36:57;25.30;99.90
46085;DHT22;31823;47.032;8.310;2023-09-12T14:39:23;25.40;99.90
46085;DHT22;31823;47.032;8.310;2023-09-12T14:41:49;24.40;99.90
46085;DHT22;31823;47.032;8.310;2023-09-12T14:44:26;23.70;99.90
46085;DHT22;31823;47.032;8.310;2023-09-12T14:46:53;23.50;99.90
46085;DHT22;31823;47.032;8.310;2023-09-12T14:49:19;23.30;99.90
46085;DHT22;31823;47.032;8.310;2023-09-12T14:51:45;23.10;99.90
46085;DHT22;31823;47.032;8.310;2023-09-12T14:54:11;23.00;99.90
46085;DHT22;31823;47.032;8.310;2023-09-12T14:56:37;22.80;99.90
46085;DHT22;31823;47.032;8.310;2023-09-12T14:59:04;22.70;99.90
46085;DHT22;31823;47.032;8.310;2023-09-12T15:01:31;22.50;99.90
46085;DHT22;31823;47.032;8.310;2023-09-12T15:03:56;22.50;99.90
46085;DHT22;31823;47.032;8.310;2023-09-12T15:06:22;22.60;99.90
46085;DHT22;31823;47.032;8.310;2023-09-12T15:08:49;23.40;99.90
46085;DHT22;31823;47.032;8.310;2023-09-12T15:11:15;23.80;99.90
46085;DHT22;31823;47.032;8.310;2023-09-12T15:13:40;24.40;99.90
46085;DHT22;31823;47.032;8.310;2023-09-12T15:16:06;24.60;99.90
46085;DHT22;31823;47.032;8.310;2023-09-12T15:18:32;25.00;99.90
46085;DHT22;31823;47.032;8.310;2023-09-12T15:20:57;24.60;99.90
46085;DHT22;31823;47.032;8.310;2023-09-12T15:23:23;24.00;99.90
46085;DHT22;31823;47.032;8.310;2023-09-12T15:25:50;23.70;99.90
46085;DHT22;31823;47.032;8.310;2023-09-12T15:28:16;23.70;99.90
46085;DHT22;31823;47.032;8.310;2023-09-12T15:30:41;23.20;99.90
46085;DHT22;31823;47.032;8.310;2023-09-12T15:33:07;23.10;99.90
46085;DHT22;31823;47.032;8.310;2023-09-12T15:35:33;22.80;99.90
46085;DHT22;31823;47.032;8.310;2023-09-12T15:37:58;22.70;99.90
46085;DHT22;31823;47.032;8.310;2023-09-12T15:40:24;22.50;99.90
46085;DHT22;31823;47.032;8.310;2023-09-12T15:42:49;22.40;99.90